sensor_id;sensor_type;location;lat;lon;timestamp;P1;durP1;ratioP1;P2;durP2;ratioP2
43710;SDS011;29309;42.682;23.372;2023-05-10T00:00:09;4.05;;;2.50;;
43710;SDS011;29309;42.682;23.372;2023-05-10T00:02:35;5.03;;;3.33;;
43710;SDS011;29309;42.682;23.372;2023-05-10T00:05:01;8.27;;;3.17;;
43710;SDS011;29309;42.682;23.372;2023-05-10T00:07:27;4.85;;;3.20;;
43710;SDS011;29309;42.682;23.372;2023-05-10T00:09:53;8.50;;;3.80;;
43710;SDS011;29309;42.682;23.372;2023-05-10T00:12:18;5.32;;;4.28;;
43710;SDS011;29309;42.682;23.372;2023-05-10T00:14:43;6.88;;;4.53;;
43710;SDS011;29309;42.682;23.372;2023-05-10T00:17:09;6.30;;;4.93;;
43710;SDS011;29309;42.682;23.372;2023-05-10T00:19:34;6.25;;;4.63;;
43710;SDS011;29309;42.682;23.372;2023-05-10T00:22:00;6.35;;;4.10;;
43710;SDS011;29309;42.682;23.372;2023-05-10T00:24:25;9.48;;;4.70;;
43710;SDS011;29309;42.682;23.372;2023-05-10T00:26:50;8.45;;;4.20;;
43710;SDS011;29309;42.682;23.372;2023-05-10T00:29:16;6.32;;;4.35;;
43710;SDS011;29309;42.682;23.372;2023-05-10T00:31:41;6.10;;;3.95;;
43710;SDS011;29309;42.682;23.372;2023-05-10T00:34:07;6.38;;;4.38;;
43710;SDS011;29309;42.682;23.372;2023-05-10T00:36:32;6.55;;;4.05;;
43710;SDS011;29309;42.682;23.372;2023-05-10T00:38:58;5.82;;;3.72;;
43710;SDS011;29309;42.682;23.372;2023-05-10T00:41:23;8.02;;;4.60;;
43710;SDS011;29309;42.682;23.372;2023-05-10T00:43:49;7.22;;;5.03;;
43710;SDS011;29309;42.682;23.372;2023-05-10T00:46:14;7.85;;;4.38;;
43710;SDS011;29309;42.682;23.372;2023-05-10T00:48:40;6.15;;;4.38;;
43710;SDS011;29309;42.682;23.372;2023-05-10T00:51:06;5.95;;;4.93;;
43710;SDS011;29309;42.682;23.372;2023-05-10T00:53:32;7.95;;;5.05;;
43710;SDS011;29309;42.682;23.372;2023-05-10T00:56:00;7.63;;;4.82;;
43710;SDS011;29309;42.682;23.372;2023-05-10T00:58:26;6.20;;;4.18;;
43710;SDS011;29309;42.682;23.372;2023-05-10T01:00:54;8.23;;;4.97;;
43710;SDS011;29309;42.682;23.372;2023-05-10T01:03:21;6.45;;;4.72;;
43710;SDS011;29309;42.682;23.372;2023-05-10T01:05:46;6.82;;;4.47;;
43710;SDS011;29309;42.682;23.372;2023-05-10T01:08:12;7.03;;;4.32;;
43710;SDS011;29309;42.682;23.372;2023-05-10T01:10:37;5.60;;;4.13;;
43710;SDS011;29309;42.682;23.372;2023-05-10T01:13:03;6.00;;;4.05;;
43710;SDS011;29309;42.682;23.372;2023-05-10T01:15:29;8.82;;;3.90;;
43710;SDS011;29309;42.682;23.372;2023-05-10T01:17:55;5.97;;;3.90;;
43710;SDS011;29309;42.682;23.372;2023-05-10T01:20:21;6.55;;;4.03;;
43710;SDS011;29309;42.682;23.372;2023-05-10T01:23:07;7.35;;;4.10;;
43710;SDS011;29309;42.682;23.372;2023-05-10T01:34:27;6.15;;;3.75;;
43710;SDS011;29309;42.682;23.372;2023-05-10T01:37:06;3.88;;;3.28;;
43710;SDS011;29309;42.682;23.372;2023-05-10T01:39:44;5.38;;;3.63;;
43710;SDS011;29309;42.682;23.372;2023-05-10T01:42:16;6.03;;;3.25;;
43710;SDS011;29309;42.682;23.372;2023-05-10T01:47:39;5.97;;;2.97;;
43710;SDS011;29309;42.682;23.372;2023-05-10T01:50:09;5.90;;;3.85;;
43710;SDS011;29309;42.682;23.372;2023-05-10T01:52:44;5.05;;;3.60;;
43710;SDS011;29309;42.682;23.372;2023-05-10T01:55:15;3.50;;;2.75;;
43710;SDS011;29309;42.682;23.372;2023-05-10T01:57:43;6.03;;;3.47;;
43710;SDS011;29309;42.682;23.372;2023-05-10T02:00:11;5.60;;;3.05;;
43710;SDS011;29309;42.682;23.372;2023-05-10T02:02:40;4.32;;;3.33;;
43710;SDS011;29309;42.682;23.372;2023-05-10T02:05:09;3.45;;;2.55;;
43710;SDS011;29309;42.682;23.372;2023-05-10T02:07:38;4.15;;;3.33;;
43710;SDS011;29309;42.682;23.372;2023-05-10T02:10:04;4.50;;;3.38;;
43710;SDS011;29309;42.682;23.372;2023-05-10T02:12:34;4.53;;;2.63;;
43710;SDS011;29309;42.682;23.372;2023-05-10T02:15:01;5.10;;;3.25;;
43710;SDS011;29309;42.682;23.372;2023-05-10T02:17:30;4.03;;;3.08;;
43710;SDS011;29309;42.682;23.372;2023-05-10T02:19:57;5.43;;;3.25;;
43710;SDS011;29309;42.682;23.372;2023-05-10T02:22:25;6.93;;;3.30;;
43710;SDS011;29309;42.682;23.372;2023-05-10T02:24:52;4.78;;;3.10;;
43710;SDS011;29309;42.682;23.372;2023-05-10T02:27:20;7.35;;;3.78;;
43710;SDS011;29309;42.682;23.372;2023-05-10T02:29:46;4.10;;;2.60;;
43710;SDS011;29309;42.682;23.372;2023-05-10T02:32:14;4.75;;;3.15;;
43710;SDS011;29309;42.682;23.372;2023-05-10T02:34:41;6.05;;;3.83;;
43710;SDS011;29309;42.682;23.372;2023-05-10T02:37:09;4.63;;;3.03;;
43710;SDS011;29309;42.682;23.372;2023-05-10T02:39:35;5.65;;;3.08;;
43710;SDS011;29309;42.682;23.372;2023-05-10T02:42:01;3.90;;;2.83;;
43710;SDS011;29309;42.682;23.372;2023-05-10T02:44:27;6.68;;;2.38;;
43710;SDS011;29309;42.682;23.372;2023-05-10T02:46:56;5.57;;;2.58;;
43710;SDS011;29309;42.682;23.372;2023-05-10T02:49:22;4.25;;;2.08;;
43710;SDS011;29309;42.682;23.372;2023-05-10T02:51:49;3.10;;;2.70;;
43710;SDS011;29309;42.682;23.372;2023-05-10T02:54:19;5.45;;;2.67;;
43710;SDS011;29309;42.682;23.372;2023-05-10T02:56:53;4.90;;;2.58;;
43710;SDS011;29309;42.682;23.372;2023-05-10T02:59:22;4.05;;;2.53;;
43710;SDS011;29309;42.682;23.372;2023-05-10T03:01:48;4.43;;;2.25;;
43710;SDS011;29309;42.682;23.372;2023-05-10T03:04:13;5.38;;;3.42;;
43710;SDS011;29309;42.682;23.372;2023-05-10T03:06:39;4.80;;;2.72;;
43710;SDS011;29309;42.682;23.372;2023-05-10T03:09:05;3.15;;;2.22;;
43710;SDS011;29309;42.682;23.372;2023-05-10T03:12:19;5.35;;;2.75;;
43710;SDS011;29309;42.682;23.372;2023-05-10T03:17:14;3.85;;;2.60;;
43710;SDS011;29309;42.682;23.372;2023-05-10T03:19:45;3.67;;;2.55;;
43710;SDS011;29309;42.682;23.372;2023-05-10T03:22:12;3.80;;;2.25;;
43710;SDS011;29309;42.682;23.372;2023-05-10T03:24:44;3.45;;;2.38;;
43710;SDS011;29309;42.682;23.372;2023-05-10T03:27:11;3.92;;;2.45;;
43710;SDS011;29309;42.682;23.372;2023-05-10T03:29:39;3.15;;;1.90;;
43710;SDS011;29309;42.682;23.372;2023-05-10T03:32:05;4.57;;;2.58;;
43710;SDS011;29309;42.682;23.372;2023-05-10T03:34:31;3.28;;;2.53;;
43710;SDS011;29309;42.682;23.372;2023-05-10T03:36:56;3.85;;;2.40;;
43710;SDS011;29309;42.682;23.372;2023-05-10T03:39:22;2.95;;;2.03;;
43710;SDS011;29309;42.682;23.372;2023-05-10T03:41:47;3.03;;;2.00;;
43710;SDS011;29309;42.682;23.372;2023-05-10T03:44:13;2.80;;;2.45;;
43710;SDS011;29309;42.682;23.372;2023-05-10T03:46:38;2.95;;;2.20;;
43710;SDS011;29309;42.682;23.372;2023-05-10T03:49:04;5.28;;;3.05;;
43710;SDS011;29309;42.682;23.372;2023-05-10T03:51:29;4.28;;;2.45;;
43710;SDS011;29309;42.682;23.372;2023-05-10T03:53:56;3.78;;;2.22;;
43710;SDS011;29309;42.682;23.372;2023-05-10T03:56:21;13.48;;;3.15;;
43710;SDS011;29309;42.682;23.372;2023-05-10T03:58:47;4.88;;;2.40;;
43710;SDS011;29309;42.682;23.372;2023-05-10T04:01:12;3.45;;;2.53;;
43710;SDS011;29309;42.682;23.372;2023-05-10T04:03:37;4.07;;;2.28;;
43710;SDS011;29309;42.682;23.372;2023-05-10T04:06:03;4.70;;;2.63;;
43710;SDS011;29309;42.682;23.372;2023-05-10T04:08:29;4.63;;;2.63;;
43710;SDS011;29309;42.682;23.372;2023-05-10T04:11:04;4.43;;;2.72;;
43710;SDS011;29309;42.682;23.372;2023-05-10T04:15:57;3.27;;;2.47;;
43710;SDS011;29309;42.682;23.372;2023-05-10T04:18:22;3.78;;;2.45;;
43710;SDS011;29309;42.682;23.372;2023-05-10T04:20:47;4.90;;;2.60;;
43710;SDS011;29309;42.682;23.372;2023-05-10T04:23:13;3.88;;;2.67;;
43710;SDS011;29309;42.682;23.372;2023-05-10T04:25:39;3.67;;;2.53;;
43710;SDS011;29309;42.682;23.372;2023-05-10T04:28:04;5.25;;;2.95;;
43710;SDS011;29309;42.682;23.372;2023-05-10T04:30:30;4.38;;;2.45;;
43710;SDS011;29309;42.682;23.372;2023-05-10T04:32:55;3.30;;;2.47;;
43710;SDS011;29309;42.682;23.372;2023-05-10T04:35:21;7.22;;;2.70;;
43710;SDS011;29309;42.682;23.372;2023-05-10T04:37:46;4.63;;;2.53;;
43710;SDS011;29309;42.682;23.372;2023-05-10T04:40:12;4.00;;;2.20;;
43710;SDS011;29309;42.682;23.372;2023-05-10T04:42:39;5.10;;;2.92;;
43710;SDS011;29309;42.682;23.372;2023-05-10T04:45:06;3.55;;;2.50;;
43710;SDS011;29309;42.682;23.372;2023-05-10T04:47:32;5.45;;;2.25;;
43710;SDS011;29309;42.682;23.372;2023-05-10T04:49:57;4.43;;;2.80;;
43710;SDS011;29309;42.682;23.372;2023-05-10T04:52:23;6.78;;;2.45;;
43710;SDS011;29309;42.682;23.372;2023-05-10T04:54:49;5.95;;;3.25;;
43710;SDS011;29309;42.682;23.372;2023-05-10T04:57:14;4.25;;;2.80;;
43710;SDS011;29309;42.682;23.372;2023-05-10T04:59:40;5.18;;;2.80;;
43710;SDS011;29309;42.682;23.372;2023-05-10T05:02:05;8.07;;;2.45;;
43710;SDS011;29309;42.682;23.372;2023-05-10T05:04:30;8.70;;;3.35;;
43710;SDS011;29309;42.682;23.372;2023-05-10T05:06:56;5.10;;;3.10;;
43710;SDS011;29309;42.682;23.372;2023-05-10T05:09:22;9.27;;;4.15;;
43710;SDS011;29309;42.682;23.372;2023-05-10T05:11:47;7.20;;;3.67;;
43710;SDS011;29309;42.682;23.372;2023-05-10T05:14:13;5.03;;;3.35;;
43710;SDS011;29309;42.682;23.372;2023-05-10T05:16:38;4.63;;;3.13;;
43710;SDS011;29309;42.682;23.372;2023-05-10T05:19:04;6.93;;;3.70;;
43710;SDS011;29309;42.682;23.372;2023-05-10T05:21:30;6.32;;;4.18;;
43710;SDS011;29309;42.682;23.372;2023-05-10T05:23:57;7.35;;;4.32;;
43710;SDS011;29309;42.682;23.372;2023-05-10T05:26:22;6.57;;;3.92;;
43710;SDS011;29309;42.682;23.372;2023-05-10T05:28:47;7.82;;;3.67;;
43710;SDS011;29309;42.682;23.372;2023-05-10T05:31:14;5.55;;;3.20;;
43710;SDS011;29309;42.682;23.372;2023-05-10T05:33:40;6.35;;;3.35;;
43710;SDS011;29309;42.682;23.372;2023-05-10T05:36:05;5.70;;;3.58;;
43710;SDS011;29309;42.682;23.372;2023-05-10T05:38:31;7.00;;;3.95;;
43710;SDS011;29309;42.682;23.372;2023-05-10T05:40:57;9.80;;;4.30;;
43710;SDS011;29309;42.682;23.372;2023-05-10T05:43:22;5.95;;;3.95;;
43710;SDS011;29309;42.682;23.372;2023-05-10T05:45:48;5.68;;;2.97;;
43710;SDS011;29309;42.682;23.372;2023-05-10T05:48:13;5.57;;;3.58;;
43710;SDS011;29309;42.682;23.372;2023-05-10T05:50:39;7.10;;;3.80;;
43710;SDS011;29309;42.682;23.372;2023-05-10T05:53:04;6.18;;;3.22;;
43710;SDS011;29309;42.682;23.372;2023-05-10T05:55:29;5.32;;;2.70;;
43710;SDS011;29309;42.682;23.372;2023-05-10T05:57:56;5.78;;;3.38;;
43710;SDS011;29309;42.682;23.372;2023-05-10T06:00:22;6.55;;;3.65;;
43710;SDS011;29309;42.682;23.372;2023-05-10T06:02:48;5.57;;;3.53;;
43710;SDS011;29309;42.682;23.372;2023-05-10T06:05:13;7.03;;;3.45;;
43710;SDS011;29309;42.682;23.372;2023-05-10T06:07:39;8.90;;;4.53;;
43710;SDS011;29309;42.682;23.372;2023-05-10T06:10:07;7.13;;;3.35;;
43710;SDS011;29309;42.682;23.372;2023-05-10T06:12:33;5.97;;;3.50;;
43710;SDS011;29309;42.682;23.372;2023-05-10T06:14:58;10.55;;;4.55;;
43710;SDS011;29309;42.682;23.372;2023-05-10T06:17:24;5.72;;;3.17;;
43710;SDS011;29309;42.682;23.372;2023-05-10T06:19:50;7.15;;;3.55;;
43710;SDS011;29309;42.682;23.372;2023-05-10T06:22:15;5.25;;;3.42;;
43710;SDS011;29309;42.682;23.372;2023-05-10T06:24:41;5.07;;;3.63;;
43710;SDS011;29309;42.682;23.372;2023-05-10T06:27:06;5.82;;;3.40;;
43710;SDS011;29309;42.682;23.372;2023-05-10T06:29:32;6.32;;;3.42;;
43710;SDS011;29309;42.682;23.372;2023-05-10T06:31:57;5.57;;;3.40;;
43710;SDS011;29309;42.682;23.372;2023-05-10T06:34:23;4.60;;;2.88;;
43710;SDS011;29309;42.682;23.372;2023-05-10T06:36:49;6.43;;;3.63;;
43710;SDS011;29309;42.682;23.372;2023-05-10T06:39:14;6.30;;;3.78;;
43710;SDS011;29309;42.682;23.372;2023-05-10T06:41:41;8.05;;;5.00;;
43710;SDS011;29309;42.682;23.372;2023-05-10T06:44:06;5.82;;;3.35;;
43710;SDS011;29309;42.682;23.372;2023-05-10T06:46:32;6.85;;;3.05;;
43710;SDS011;29309;42.682;23.372;2023-05-10T06:48:57;6.38;;;3.17;;
43710;SDS011;29309;42.682;23.372;2023-05-10T06:51:23;4.70;;;3.45;;
43710;SDS011;29309;42.682;23.372;2023-05-10T06:53:48;4.05;;;2.45;;
43710;SDS011;29309;42.682;23.372;2023-05-10T06:56:14;5.05;;;3.47;;
43710;SDS011;29309;42.682;23.372;2023-05-10T06:58:39;5.57;;;2.97;;
43710;SDS011;29309;42.682;23.372;2023-05-10T07:01:05;5.50;;;3.70;;
43710;SDS011;29309;42.682;23.372;2023-05-10T07:03:30;8.48;;;3.40;;
43710;SDS011;29309;42.682;23.372;2023-05-10T07:06:00;5.80;;;3.78;;
43710;SDS011;29309;42.682;23.372;2023-05-10T07:08:28;6.90;;;3.78;;
43710;SDS011;29309;42.682;23.372;2023-05-10T07:10:58;6.55;;;4.07;;
43710;SDS011;29309;42.682;23.372;2023-05-10T07:13:28;7.20;;;3.42;;
43710;SDS011;29309;42.682;23.372;2023-05-10T07:15:55;3.25;;;2.45;;
43710;SDS011;29309;42.682;23.372;2023-05-10T07:18:20;5.95;;;2.70;;
43710;SDS011;29309;42.682;23.372;2023-05-10T07:20:46;4.18;;;2.70;;
43710;SDS011;29309;42.682;23.372;2023-05-10T07:23:11;7.00;;;3.53;;
43710;SDS011;29309;42.682;23.372;2023-05-10T07:25:37;5.35;;;3.03;;
43710;SDS011;29309;42.682;23.372;2023-05-10T07:28:02;6.90;;;3.80;;
43710;SDS011;29309;42.682;23.372;2023-05-10T07:30:28;5.00;;;3.55;;
43710;SDS011;29309;42.682;23.372;2023-05-10T07:32:53;6.90;;;3.28;;
43710;SDS011;29309;42.682;23.372;2023-05-10T07:35:19;6.28;;;3.00;;
43710;SDS011;29309;42.682;23.372;2023-05-10T07:37:44;3.72;;;2.80;;
43710;SDS011;29309;42.682;23.372;2023-05-10T07:40:10;3.83;;;3.17;;
43710;SDS011;29309;42.682;23.372;2023-05-10T07:42:35;5.63;;;2.88;;
43710;SDS011;29309;42.682;23.372;2023-05-10T07:45:01;5.55;;;3.45;;
43710;SDS011;29309;42.682;23.372;2023-05-10T07:47:26;7.15;;;3.80;;
43710;SDS011;29309;42.682;23.372;2023-05-10T07:49:52;7.28;;;4.53;;
43710;SDS011;29309;42.682;23.372;2023-05-10T07:52:17;5.80;;;3.67;;
43710;SDS011;29309;42.682;23.372;2023-05-10T07:54:43;7.30;;;4.38;;
43710;SDS011;29309;42.682;23.372;2023-05-10T07:57:09;6.97;;;4.20;;
43710;SDS011;29309;42.682;23.372;2023-05-10T07:59:34;9.35;;;4.22;;
43710;SDS011;29309;42.682;23.372;2023-05-10T08:02:00;5.60;;;3.92;;
43710;SDS011;29309;42.682;23.372;2023-05-10T08:04:25;5.80;;;3.42;;
43710;SDS011;29309;42.682;23.372;2023-05-10T08:06:51;6.18;;;3.92;;
43710;SDS011;29309;42.682;23.372;2023-05-10T08:09:16;5.50;;;2.83;;
43710;SDS011;29309;42.682;23.372;2023-05-10T08:11:42;7.03;;;4.22;;
43710;SDS011;29309;42.682;23.372;2023-05-10T08:14:08;6.03;;;3.90;;
43710;SDS011;29309;42.682;23.372;2023-05-10T08:16:33;7.03;;;4.30;;
43710;SDS011;29309;42.682;23.372;2023-05-10T08:18:59;5.38;;;3.88;;
43710;SDS011;29309;42.682;23.372;2023-05-10T08:21:24;7.68;;;5.03;;
43710;SDS011;29309;42.682;23.372;2023-05-10T08:23:51;7.05;;;4.18;;
43710;SDS011;29309;42.682;23.372;2023-05-10T08:26:16;11.40;;;4.68;;
43710;SDS011;29309;42.682;23.372;2023-05-10T08:28:42;9.95;;;4.53;;
43710;SDS011;29309;42.682;23.372;2023-05-10T08:31:07;7.60;;;4.40;;
43710;SDS011;29309;42.682;23.372;2023-05-10T08:33:33;6.80;;;4.22;;
43710;SDS011;29309;42.682;23.372;2023-05-10T08:35:58;4.28;;;3.50;;
43710;SDS011;29309;42.682;23.372;2023-05-10T08:38:23;6.47;;;4.10;;
43710;SDS011;29309;42.682;23.372;2023-05-10T08:40:50;8.25;;;4.78;;
43710;SDS011;29309;42.682;23.372;2023-05-10T08:43:21;5.50;;;4.18;;
43710;SDS011;29309;42.682;23.372;2023-05-10T08:45:50;6.60;;;4.60;;
43710;SDS011;29309;42.682;23.372;2023-05-10T08:48:19;7.18;;;4.97;;
43710;SDS011;29309;42.682;23.372;2023-05-10T08:50:47;6.20;;;4.30;;
43710;SDS011;29309;42.682;23.372;2023-05-10T08:53:15;5.82;;;4.28;;
43710;SDS011;29309;42.682;23.372;2023-05-10T08:55:41;5.88;;;4.47;;
43710;SDS011;29309;42.682;23.372;2023-05-10T08:58:08;18.67;;;4.75;;
43710;SDS011;29309;42.682;23.372;2023-05-10T09:00:34;4.47;;;3.72;;
43710;SDS011;29309;42.682;23.372;2023-05-10T09:03:02;10.18;;;4.00;;
43710;SDS011;29309;42.682;23.372;2023-05-10T09:05:29;5.78;;;4.20;;
43710;SDS011;29309;42.682;23.372;2023-05-10T09:07:54;5.75;;;3.65;;
43710;SDS011;29309;42.682;23.372;2023-05-10T09:10:20;6.85;;;4.13;;
43710;SDS011;29309;42.682;23.372;2023-05-10T09:12:46;6.13;;;3.80;;
43710;SDS011;29309;42.682;23.372;2023-05-10T09:15:16;6.30;;;3.97;;
43710;SDS011;29309;42.682;23.372;2023-05-10T09:17:44;5.75;;;4.32;;
43710;SDS011;29309;42.682;23.372;2023-05-10T09:20:09;8.25;;;4.35;;
43710;SDS011;29309;42.682;23.372;2023-05-10T09:22:35;7.43;;;4.47;;
43710;SDS011;29309;42.682;23.372;2023-05-10T09:27:29;6.80;;;4.03;;
43710;SDS011;29309;42.682;23.372;2023-05-10T09:29:55;6.40;;;3.92;;
43710;SDS011;29309;42.682;23.372;2023-05-10T09:32:20;5.97;;;4.45;;
43710;SDS011;29309;42.682;23.372;2023-05-10T09:34:46;5.72;;;3.97;;
43710;SDS011;29309;42.682;23.372;2023-05-10T09:37:15;7.38;;;4.60;;
43710;SDS011;29309;42.682;23.372;2023-05-10T09:39:40;5.25;;;3.78;;
43710;SDS011;29309;42.682;23.372;2023-05-10T09:42:07;4.43;;;3.85;;
43710;SDS011;29309;42.682;23.372;2023-05-10T09:44:34;5.25;;;4.43;;
43710;SDS011;29309;42.682;23.372;2023-05-10T09:47:03;8.55;;;4.57;;
43710;SDS011;29309;42.682;23.372;2023-05-10T09:49:29;7.03;;;3.83;;
43710;SDS011;29309;42.682;23.372;2023-05-10T09:54:31;4.60;;;3.45;;
43710;SDS011;29309;42.682;23.372;2023-05-10T09:56:57;4.72;;;3.60;;
43710;SDS011;29309;42.682;23.372;2023-05-10T09:59:23;5.85;;;3.63;;
43710;SDS011;29309;42.682;23.372;2023-05-10T10:01:52;5.82;;;3.92;;
43710;SDS011;29309;42.682;23.372;2023-05-10T10:04:20;7.07;;;3.78;;
43710;SDS011;29309;42.682;23.372;2023-05-10T10:06:46;5.63;;;4.00;;
43710;SDS011;29309;42.682;23.372;2023-05-10T10:09:22;8.02;;;4.53;;
43710;SDS011;29309;42.682;23.372;2023-05-10T10:11:49;5.30;;;3.92;;
43710;SDS011;29309;42.682;23.372;2023-05-10T10:14:14;5.55;;;3.92;;
43710;SDS011;29309;42.682;23.372;2023-05-10T10:16:43;4.93;;;3.42;;
43710;SDS011;29309;42.682;23.372;2023-05-10T10:19:09;5.32;;;3.83;;
43710;SDS011;29309;42.682;23.372;2023-05-10T10:21:35;5.63;;;4.05;;
43710;SDS011;29309;42.682;23.372;2023-05-10T10:24:00;5.35;;;3.03;;
43710;SDS011;29309;42.682;23.372;2023-05-10T10:26:26;4.13;;;2.58;;
43710;SDS011;29309;42.682;23.372;2023-05-10T10:29:06;4.82;;;2.47;;
43710;SDS011;29309;42.682;23.372;2023-05-10T10:31:49;4.47;;;2.53;;
43710;SDS011;29309;42.682;23.372;2023-05-10T10:36:53;7.10;;;3.22;;
43710;SDS011;29309;42.682;23.372;2023-05-10T10:39:19;6.05;;;2.63;;
43710;SDS011;29309;42.682;23.372;2023-05-10T10:47:06;4.60;;;3.10;;
43710;SDS011;29309;42.682;23.372;2023-05-10T10:55:19;6.65;;;3.30;;
43710;SDS011;29309;42.682;23.372;2023-05-10T11:02:49;7.90;;;2.65;;
43710;SDS011;29309;42.682;23.372;2023-05-10T11:08:14;5.53;;;3.60;;
43710;SDS011;29309;42.682;23.372;2023-05-10T11:11:16;5.57;;;3.00;;
43710;SDS011;29309;42.682;23.372;2023-05-10T11:13:44;5.70;;;3.08;;
43710;SDS011;29309;42.682;23.372;2023-05-10T11:19:07;5.18;;;3.50;;
43710;SDS011;29309;42.682;23.372;2023-05-10T11:21:34;4.05;;;2.83;;
43710;SDS011;29309;42.682;23.372;2023-05-10T11:24:15;6.03;;;3.72;;
43710;SDS011;29309;42.682;23.372;2023-05-10T11:26:44;5.20;;;3.60;;
43710;SDS011;29309;42.682;23.372;2023-05-10T11:29:09;5.03;;;3.15;;
43710;SDS011;29309;42.682;23.372;2023-05-10T11:31:41;4.20;;;3.03;;
43710;SDS011;29309;42.682;23.372;2023-05-10T11:34:11;10.02;;;3.20;;
43710;SDS011;29309;42.682;23.372;2023-05-10T11:36:50;4.25;;;3.33;;
43710;SDS011;29309;42.682;23.372;2023-05-10T11:39:18;4.45;;;3.38;;
43710;SDS011;29309;42.682;23.372;2023-05-10T11:41:44;6.68;;;3.60;;
43710;SDS011;29309;42.682;23.372;2023-05-10T11:44:13;4.63;;;2.95;;
43710;SDS011;29309;42.682;23.372;2023-05-10T11:46:39;6.03;;;2.90;;
43710;SDS011;29309;42.682;23.372;2023-05-10T11:49:04;4.18;;;3.10;;
43710;SDS011;29309;42.682;23.372;2023-05-10T11:51:35;6.47;;;3.17;;
43710;SDS011;29309;42.682;23.372;2023-05-10T11:54:04;7.15;;;3.38;;
43710;SDS011;29309;42.682;23.372;2023-05-10T11:56:32;4.35;;;3.25;;
43710;SDS011;29309;42.682;23.372;2023-05-10T11:58:58;5.05;;;3.10;;
43710;SDS011;29309;42.682;23.372;2023-05-10T12:01:25;5.10;;;3.10;;
43710;SDS011;29309;42.682;23.372;2023-05-10T12:03:52;4.28;;;3.15;;
43710;SDS011;29309;42.682;23.372;2023-05-10T12:06:19;4.07;;;2.78;;
43710;SDS011;29309;42.682;23.372;2023-05-10T12:08:46;6.82;;;4.82;;
43710;SDS011;29309;42.682;23.372;2023-05-10T12:11:14;5.53;;;3.15;;
43710;SDS011;29309;42.682;23.372;2023-05-10T12:13:41;6.70;;;3.95;;
43710;SDS011;29309;42.682;23.372;2023-05-10T12:16:18;3.80;;;3.03;;
43710;SDS011;29309;42.682;23.372;2023-05-10T12:18:52;6.32;;;4.43;;
43710;SDS011;29309;42.682;23.372;2023-05-10T12:21:22;4.50;;;3.53;;
43710;SDS011;29309;42.682;23.372;2023-05-10T12:23:49;4.25;;;3.10;;
43710;SDS011;29309;42.682;23.372;2023-05-10T12:26:16;3.90;;;3.13;;
43710;SDS011;29309;42.682;23.372;2023-05-10T12:28:42;7.88;;;3.63;;
43710;SDS011;29309;42.682;23.372;2023-05-10T12:31:08;4.80;;;3.35;;
43710;SDS011;29309;42.682;23.372;2023-05-10T12:33:37;7.32;;;3.75;;
43710;SDS011;29309;42.682;23.372;2023-05-10T12:36:08;4.20;;;3.22;;
43710;SDS011;29309;42.682;23.372;2023-05-10T12:38:38;10.50;;;4.22;;
43710;SDS011;29309;42.682;23.372;2023-05-10T12:41:11;5.03;;;3.67;;
43710;SDS011;29309;42.682;23.372;2023-05-10T12:43:38;5.03;;;3.90;;
43710;SDS011;29309;42.682;23.372;2023-05-10T12:46:07;6.13;;;3.72;;
43710;SDS011;29309;42.682;23.372;2023-05-10T12:48:38;6.70;;;3.45;;
43710;SDS011;29309;42.682;23.372;2023-05-10T12:51:04;5.43;;;3.65;;
43710;SDS011;29309;42.682;23.372;2023-05-10T12:53:34;6.18;;;4.47;;
43710;SDS011;29309;42.682;23.372;2023-05-10T12:56:00;5.38;;;3.60;;
43710;SDS011;29309;42.682;23.372;2023-05-10T12:58:26;5.97;;;3.33;;
43710;SDS011;29309;42.682;23.372;2023-05-10T13:00:51;5.03;;;3.20;;
43710;SDS011;29309;42.682;23.372;2023-05-10T13:03:17;5.65;;;3.60;;
43710;SDS011;29309;42.682;23.372;2023-05-10T13:05:43;7.18;;;3.53;;
43710;SDS011;29309;42.682;23.372;2023-05-10T13:08:08;6.40;;;3.50;;
43710;SDS011;29309;42.682;23.372;2023-05-10T13:10:34;4.85;;;3.42;;
43710;SDS011;29309;42.682;23.372;2023-05-10T13:12:59;6.22;;;3.08;;
43710;SDS011;29309;42.682;23.372;2023-05-10T13:15:25;5.35;;;3.55;;
43710;SDS011;29309;42.682;23.372;2023-05-10T13:17:51;7.68;;;3.97;;
43710;SDS011;29309;42.682;23.372;2023-05-10T13:20:16;4.05;;;3.28;;
43710;SDS011;29309;42.682;23.372;2023-05-10T13:22:43;3.80;;;3.13;;
43710;SDS011;29309;42.682;23.372;2023-05-10T13:25:09;4.10;;;3.13;;
43710;SDS011;29309;42.682;23.372;2023-05-10T13:27:35;4.25;;;3.15;;
43710;SDS011;29309;42.682;23.372;2023-05-10T13:30:01;5.93;;;3.40;;
43710;SDS011;29309;42.682;23.372;2023-05-10T13:32:28;6.15;;;3.47;;
43710;SDS011;29309;42.682;23.372;2023-05-10T13:34:54;7.72;;;3.83;;
43710;SDS011;29309;42.682;23.372;2023-05-10T13:37:20;5.47;;;3.35;;
43710;SDS011;29309;42.682;23.372;2023-05-10T13:39:46;6.32;;;3.53;;
43710;SDS011;29309;42.682;23.372;2023-05-10T13:42:12;4.47;;;3.33;;
43710;SDS011;29309;42.682;23.372;2023-05-10T13:44:37;6.28;;;3.40;;
43710;SDS011;29309;42.682;23.372;2023-05-10T13:47:03;4.72;;;3.25;;
43710;SDS011;29309;42.682;23.372;2023-05-10T13:49:29;4.50;;;3.22;;
43710;SDS011;29309;42.682;23.372;2023-05-10T13:51:54;4.78;;;2.90;;
43710;SDS011;29309;42.682;23.372;2023-05-10T13:54:20;4.97;;;3.08;;
43710;SDS011;29309;42.682;23.372;2023-05-10T13:56:47;5.63;;;3.53;;
43710;SDS011;29309;42.682;23.372;2023-05-10T13:59:13;5.55;;;2.88;;
43710;SDS011;29309;42.682;23.372;2023-05-10T14:01:41;5.70;;;3.10;;
43710;SDS011;29309;42.682;23.372;2023-05-10T14:04:08;3.83;;;3.00;;
43710;SDS011;29309;42.682;23.372;2023-05-10T14:06:35;3.53;;;2.58;;
43710;SDS011;29309;42.682;23.372;2023-05-10T14:09:01;6.68;;;3.55;;
43710;SDS011;29309;42.682;23.372;2023-05-10T14:11:27;4.63;;;3.33;;
43710;SDS011;29309;42.682;23.372;2023-05-10T14:13:52;11.88;;;3.72;;
43710;SDS011;29309;42.682;23.372;2023-05-10T14:16:18;7.95;;;3.63;;
43710;SDS011;29309;42.682;23.372;2023-05-10T14:18:45;4.15;;;3.22;;
43710;SDS011;29309;42.682;23.372;2023-05-10T14:21:10;6.72;;;3.25;;
43710;SDS011;29309;42.682;23.372;2023-05-10T14:23:36;5.60;;;3.80;;
43710;SDS011;29309;42.682;23.372;2023-05-10T14:26:01;6.32;;;3.30;;
43710;SDS011;29309;42.682;23.372;2023-05-10T14:28:27;5.80;;;3.45;;
43710;SDS011;29309;42.682;23.372;2023-05-10T14:30:53;6.53;;;3.00;;
43710;SDS011;29309;42.682;23.372;2023-05-10T14:33:18;5.35;;;3.70;;
43710;SDS011;29309;42.682;23.372;2023-05-10T14:35:45;4.68;;;3.10;;
43710;SDS011;29309;42.682;23.372;2023-05-10T14:38:11;7.43;;;3.40;;
43710;SDS011;29309;42.682;23.372;2023-05-10T14:40:37;4.72;;;3.40;;
43710;SDS011;29309;42.682;23.372;2023-05-10T14:43:02;6.30;;;3.25;;
43710;SDS011;29309;42.682;23.372;2023-05-10T14:45:28;4.85;;;3.20;;
43710;SDS011;29309;42.682;23.372;2023-05-10T14:47:53;5.15;;;3.03;;
43710;SDS011;29309;42.682;23.372;2023-05-10T14:50:19;4.05;;;3.00;;
43710;SDS011;29309;42.682;23.372;2023-05-10T14:52:44;3.90;;;2.97;;
43710;SDS011;29309;42.682;23.372;2023-05-10T14:55:10;3.67;;;2.67;;
43710;SDS011;29309;42.682;23.372;2023-05-10T14:57:35;4.95;;;3.45;;
43710;SDS011;29309;42.682;23.372;2023-05-10T15:00:02;4.28;;;3.20;;
43710;SDS011;29309;42.682;23.372;2023-05-10T15:02:28;6.45;;;3.55;;
43710;SDS011;29309;42.682;23.372;2023-05-10T15:04:54;6.18;;;3.47;;
43710;SDS011;29309;42.682;23.372;2023-05-10T15:07:19;6.10;;;3.53;;
43710;SDS011;29309;42.682;23.372;2023-05-10T15:09:45;6.38;;;3.50;;
43710;SDS011;29309;42.682;23.372;2023-05-10T15:12:10;5.40;;;3.88;;
43710;SDS011;29309;42.682;23.372;2023-05-10T15:14:36;5.47;;;3.17;;
43710;SDS011;29309;42.682;23.372;2023-05-10T15:17:02;5.13;;;3.60;;